KOXD/OXD METAR and TAF weather

Enter ICAO airport designator
Station Type Date Time Source
KOXD METAR 2021/08/28 10:59 UTC NOAA

KOXD 281059Z AUTO 00000KT 7SM CLR 21/16 A3018 RMK AO2


Station Type Date Time Source
KOXD Decoded METAR 2021/08/28 10:59 UTC NOAA

Station name not available
Aug 28, 2021 - 06:59 AM EDT / 2021.08.28 1059 UTC
Wind: Calm:0
Visibility: 7 mile(s):0
Sky conditions: clear
Temperature: 69 F (21 C)
Dew Point: 60 F (16 C)
Relative Humidity: 73%
Pressure (altimeter): 30.18 in. Hg (1022 hPa)
ob: KOXD 281059Z AUTO 00000KT 7SM CLR 21/16 A3018 RMK AO2
cycle: 11

Station Type Date Time Source
KOXD TAF UTC NOAA

Error!

Example: see airport list